createdAt,value
2022-10-29T00:03:00.238Z,98860.03
2022-10-29T00:08:02.295Z,98860.78
2022-10-29T00:13:04.537Z,98861.25
2022-10-29T00:18:06.323Z,98868.00
2022-10-29T00:23:08.217Z,98884.97
2022-10-29T00:28:10.030Z,98885.97
2022-10-29T00:33:13.121Z,98879.47
2022-10-29T00:38:15.042Z,98881.44
2022-10-29T00:43:19.391Z,98874.59
2022-10-29T00:48:23.774Z,98870.72
2022-10-29T00:53:28.842Z,98868.63
2022-10-29T00:58:30.957Z,98873.25
2022-10-29T01:03:33.187Z,98875.84
2022-10-29T01:08:35.383Z,98859.34
2022-10-29T01:14:11.335Z,98855.09
2022-10-29T01:19:26.603Z,98853.28
2022-10-29T01:24:57.544Z,98847.56
2022-10-29T01:30:24.312Z,98850.63
2022-10-29T01:35:35.200Z,98850.28
2022-10-29T01:40:46.927Z,98855.50
2022-10-29T01:45:56.623Z,98850.63
2022-10-29T01:51:03.843Z,98859.66
2022-10-29T01:56:05.999Z,98858.22
2022-10-29T02:01:32.397Z,98859.41
2022-10-29T02:06:58.414Z,98868.25
2022-10-29T02:12:03.134Z,98858.34
2022-10-29T02:17:06.472Z,98848.22
2022-10-29T02:22:08.202Z,98850.56
2022-10-29T02:27:10.030Z,98845.06
2022-10-29T02:32:12.964Z,98853.47
2022-10-29T02:37:14.843Z,98846.16
2022-10-29T02:42:17.243Z,98843.28
2022-10-29T02:47:19.131Z,98850.50
2022-10-29T02:52:20.960Z,98851.50
2022-10-29T02:57:22.762Z,98852.50
2022-10-29T03:02:24.689Z,98848.25
2022-10-29T03:07:26.703Z,98855.28
2022-10-29T03:12:28.528Z,98862.50
2022-10-29T03:17:30.406Z,98868.09
2022-10-29T03:22:32.296Z,98875.66
2022-10-29T03:27:42.195Z,98869.34
2022-10-29T03:32:45.662Z,98874.47
2022-10-29T03:37:52.006Z,98880.25
2022-10-29T03:42:54.223Z,98885.19
2022-10-29T03:47:57.646Z,98887.72
2022-10-29T03:52:59.968Z,98888.25
2022-10-29T03:58:01.824Z,98895.81
2022-10-29T04:03:04.960Z,98898.31
2022-10-29T04:08:06.843Z,98888.56
2022-10-29T04:13:08.678Z,98909.00
2022-10-29T04:18:11.562Z,98907.91
2022-10-29T04:27:07.989Z,98911.69
2022-10-29T04:28:43.051Z,98915.63
2022-10-29T04:33:46.375Z,98921.56
2022-10-29T04:38:48.175Z,98925.50
2022-10-29T04:43:49.999Z,98924.22
2022-10-29T04:48:51.915Z,98921.78
2022-10-29T04:53:53.851Z,98917.88
2022-10-29T04:58:55.669Z,98910.41
2022-10-29T05:04:00.000Z,98907.97
2022-10-29T05:09:02.378Z,98903.88
2022-10-29T05:14:04.222Z,98906.69
2022-10-29T05:19:06.767Z,98919.09
2022-10-29T05:24:08.723Z,98913.69
2022-10-29T05:29:10.541Z,98920.38
2022-10-29T05:34:12.558Z,98924.28
2022-10-29T05:39:14.470Z,98931.41
2022-10-29T05:44:16.294Z,98924.84
2022-10-29T05:49:18.128Z,98939.19
2022-10-29T05:54:19.933Z,98937.22
2022-10-29T05:59:21.783Z,98948.84
2022-10-29T06:04:23.786Z,98936.81
2022-10-29T06:09:25.616Z,98948.75
2022-10-29T06:14:27.484Z,98934.06
2022-10-29T06:19:29.332Z,98940.47
2022-10-29T06:24:31.222Z,98934.41
2022-10-29T06:29:32.996Z,98942.59
2022-10-29T06:34:34.729Z,98956.31
2022-10-29T06:39:36.588Z,98958.56
2022-10-29T06:44:38.430Z,98971.94
2022-10-29T06:49:40.191Z,98964.41
2022-10-29T06:54:41.905Z,98964.69
2022-10-29T06:59:44.342Z,98960.41
2022-10-29T07:04:46.350Z,98961.34
2022-10-29T07:09:48.204Z,98957.38
2022-10-29T07:14:49.963Z,98958.03
2022-10-29T07:19:51.819Z,98971.72
2022-10-29T07:24:55.890Z,98975.28
2022-10-29T07:30:00.407Z,98959.66
2022-10-29T07:35:02.381Z,98961.50
2022-10-29T07:40:05.194Z,98959.09
2022-10-29T07:45:07.351Z,98955.69
2022-10-29T07:50:09.789Z,98959.16
2022-10-29T07:55:11.633Z,98960.97
2022-10-29T08:00:14.940Z,98957.53
2022-10-29T08:05:18.150Z,98954.91
2022-10-29T08:10:20.033Z,98960.94
2022-10-29T08:15:23.581Z,98966.34
2022-10-29T08:20:28.881Z,98953.97
2022-10-29T08:25:30.749Z,98948.44
2022-10-29T08:30:32.606Z,98945.72
2022-10-29T08:35:34.919Z,98933.28
2022-10-29T08:41:05.675Z,98920.13
2022-10-29T08:46:24.183Z,98916.81
2022-10-29T08:51:28.655Z,98923.53
2022-10-29T08:56:34.593Z,98916.97
2022-10-29T09:01:37.182Z,98923.09
2022-10-29T09:06:55.058Z,98918.88
2022-10-29T09:12:02.727Z,98922.94
2022-10-29T09:17:17.593Z,98916.56
2022-10-29T09:22:27.082Z,98918.56
2022-10-29T09:27:53.851Z,98894.31
2022-10-29T09:33:07.349Z,98899.56
2022-10-29T09:38:19.581Z,98896.19
2022-10-29T09:43:34.468Z,98903.69
2022-10-29T09:48:54.179Z,98910.56
2022-10-29T09:53:56.210Z,98903.69
2022-10-29T09:59:13.453Z,98917.53
2022-10-29T10:04:37.459Z,98911.59
2022-10-29T10:09:55.733Z,98914.09
2022-10-29T10:15:20.367Z,98922.63
2022-10-29T10:20:33.397Z,98903.03
2022-10-29T10:25:39.897Z,98902.81
2022-10-29T10:30:43.376Z,98904.03
2022-10-29T10:35:45.383Z,98903.41
2022-10-29T10:41:08.868Z,98883.63
2022-10-29T10:46:31.590Z,98886.28
2022-10-29T10:51:36.268Z,98886.28
2022-10-29T10:57:02.247Z,98889.72
2022-10-29T11:02:05.274Z,98889.56
2022-10-29T11:07:11.328Z,98883.53
2022-10-29T11:12:34.425Z,98875.06
2022-10-29T11:17:41.902Z,98870.63
2022-10-29T11:22:50.166Z,98857.28
2022-10-29T11:28:24.194Z,98847.56
2022-10-29T11:33:39.230Z,98844.31
2022-10-29T11:38:50.722Z,98837.84
2022-10-29T11:43:52.892Z,98832.19
2022-10-29T11:49:12.886Z,98818.66
2022-10-29T11:54:35.794Z,98814.81
2022-10-29T11:59:43.273Z,98809.75
2022-10-29T12:04:51.232Z,98803.06
2022-10-29T12:10:34.301Z,98799.84
2022-10-29T12:15:47.291Z,98799.03
2022-10-29T12:21:03.101Z,98804.69
2022-10-29T12:26:04.902Z,98805.50
2022-10-29T12:31:10.722Z,98797.00
2022-10-29T12:36:24.685Z,98795.38
2022-10-29T12:41:32.536Z,98781.63
2022-10-29T12:46:48.347Z,98782.66
2022-10-29T12:57:14.581Z,98769.91
2022-10-29T13:02:46.240Z,98762.22
2022-10-29T13:07:48.297Z,98766.06
2022-10-29T13:12:55.592Z,98758.59
2022-10-29T13:18:04.922Z,98750.09
2022-10-29T13:23:22.007Z,98743.22
2022-10-29T13:28:23.811Z,98750.50
2022-10-29T13:33:28.549Z,98753.13
2022-10-29T13:38:38.186Z,98745.84
2022-10-29T13:44:00.187Z,98742.81
2022-10-29T13:49:10.175Z,98738.34
2022-10-29T13:59:43.625Z,98753.47
2022-10-29T14:04:51.036Z,98748.84
2022-10-29T14:09:56.963Z,98753.69
2022-10-29T14:15:11.807Z,98759.34
2022-10-29T14:20:26.722Z,98750.03
2022-10-29T14:25:35.760Z,98748.41
2022-10-29T14:30:37.660Z,98756.91
2022-10-29T14:35:39.781Z,98760.13
2022-10-29T14:40:44.964Z,98754.06
2022-10-29T14:45:47.154Z,98750.84
2022-10-29T14:50:51.569Z,98754.88
2022-10-29T14:55:53.667Z,98755.28
2022-10-29T15:01:01.972Z,98752.25
2022-10-29T15:06:30.133Z,98748.41
2022-10-29T15:11:36.642Z,98753.63
2022-10-29T15:16:41.560Z,98756.44
2022-10-29T15:21:45.108Z,98755.63
2022-10-29T15:26:57.147Z,98762.66
2022-10-29T15:31:59.263Z,98753.16
2022-10-29T15:37:19.126Z,98761.19
2022-10-29T15:42:22.983Z,98764.34
2022-10-29T15:47:28.468Z,98761.88
2022-10-29T15:52:38.045Z,98767.47
2022-10-29T15:57:40.607Z,98756.16
2022-10-29T16:02:42.657Z,98761.34
2022-10-29T16:07:47.136Z,98755.06
2022-10-29T16:12:49.964Z,98749.59
2022-10-29T16:17:51.863Z,98753.59
2022-10-29T16:22:53.727Z,98753.38
2022-10-29T16:27:56.214Z,98760.00
2022-10-29T16:33:00.934Z,98764.81
2022-10-29T16:38:03.351Z,98757.53
2022-10-29T16:43:05.573Z,98758.09
2022-10-29T16:48:07.411Z,98757.06
2022-10-29T16:53:11.211Z,98752.38
2022-10-29T16:58:15.283Z,98753.75
2022-10-29T17:03:18.167Z,98757.75
2022-10-29T17:08:20.650Z,98758.75
2022-10-29T17:13:22.445Z,98756.94
2022-10-29T17:18:24.826Z,98755.75
2022-10-29T17:23:26.922Z,98751.13
2022-10-29T17:28:29.232Z,98757.00
2022-10-29T17:33:31.062Z,98757.00
2022-10-29T17:38:32.895Z,98759.00
2022-10-29T17:43:34.726Z,98764.44
2022-10-29T17:48:36.929Z,98757.75
2022-10-29T17:53:39.347Z,98750.28
2022-10-29T17:58:41.197Z,98749.03
2022-10-29T18:03:43.435Z,98756.28
2022-10-29T18:08:45.322Z,98759.91
2022-10-29T18:13:49.027Z,98751.22
2022-10-29T18:19:02.187Z,98746.78
2022-10-29T18:24:05.554Z,98749.59
2022-10-29T18:29:12.359Z,98751.56
2022-10-29T18:34:15.376Z,98745.91
2022-10-29T18:39:17.377Z,98753.50
2022-10-29T18:44:19.219Z,98748.66
2022-10-29T18:49:21.421Z,98742.97
2022-10-29T18:54:23.361Z,98746.34
2022-10-29T18:59:25.281Z,98752.16
2022-10-29T19:04:27.203Z,98754.34
2022-10-29T19:09:32.549Z,98759.94
2022-10-29T19:14:34.378Z,98757.69
2022-10-29T19:19:36.478Z,98753.66
2022-10-29T19:24:38.293Z,98753.03
2022-10-29T19:29:40.167Z,98750.78
2022-10-29T19:34:42.110Z,98752.75
2022-10-29T19:39:43.926Z,98759.63
2022-10-29T19:44:45.699Z,98759.81
2022-10-29T19:49:47.459Z,98755.56
2022-10-29T19:54:49.220Z,98753.94
2022-10-29T19:59:50.960Z,98754.13
2022-10-29T20:04:52.773Z,98751.06
2022-10-29T20:09:54.578Z,98749.63
2022-10-29T20:14:56.453Z,98752.25
2022-10-29T20:19:58.253Z,98745.41
2022-10-29T20:24:59.986Z,98745.41
2022-10-29T20:30:01.796Z,98745.41
2022-10-29T20:35:03.776Z,98742.97
2022-10-29T20:40:06.067Z,98740.34
2022-10-29T20:45:08.472Z,98732.50
2022-10-29T20:50:10.197Z,98745.41
2022-10-29T20:55:12.392Z,98738.53
2022-10-29T21:00:14.547Z,98741.16
2022-10-29T21:05:16.308Z,98734.13
2022-10-29T21:10:18.117Z,98740.16
2022-10-29T21:15:20.041Z,98741.16
2022-10-29T21:20:27.352Z,98738.53
2022-10-29T21:25:29.423Z,98736.91
2022-10-29T21:30:32.057Z,98735.31
2022-10-29T21:35:33.874Z,98735.31
2022-10-29T21:40:35.606Z,98734.31
2022-10-29T21:45:37.364Z,98728.44
2022-10-29T21:50:39.722Z,98732.06
2022-10-29T21:55:41.504Z,98732.44
2022-10-29T22:00:43.250Z,98734.41
2022-10-29T22:05:45.033Z,98733.16
2022-10-29T22:10:46.858Z,98731.91
2022-10-29T22:15:48.639Z,98730.66
2022-10-29T22:20:50.504Z,98732.84
2022-10-29T22:25:52.372Z,98727.78
2022-10-29T22:30:59.362Z,98732.22
2022-10-29T22:36:05.663Z,98726.97
2022-10-29T22:41:10.207Z,98727.34
2022-10-29T22:46:14.826Z,98725.28
2022-10-29T22:51:22.642Z,98723.03
2022-10-29T22:56:25.676Z,98717.53
2022-10-29T23:01:30.165Z,98714.28
2022-10-29T23:06:32.520Z,98727.38
2022-10-29T23:11:41.489Z,98719.16
2022-10-29T23:16:43.362Z,98717.16
2022-10-29T23:21:45.436Z,98715.19
2022-10-29T23:26:47.323Z,98720.06
2022-10-29T23:31:49.173Z,98716.25
2022-10-29T23:41:57.911Z,98707.47
2022-10-29T23:46:59.823Z,98713.34
2022-10-29T23:52:01.630Z,98709.66
2022-10-29T23:57:03.582Z,98703.81
